Time;durP1;ratioP1;P1;durP2;ratioP2;P2;SDS_P1;SDS_P2;PMS_P1;PMS_P2;Temp;Humidity;BMP_temperature;BMP_pressure;BME280_temperature;BME280_humidity;BME280_pressure;Samples;Min_cycle;Max_cycle;Signal;HPM_P1;HPM_P2
2021/11/29 00:01:35;;;;;;;13.77;6.60;;;;;;;;;;5076928;28;20426;-85
2021/11/29 00:04:00;;;;;;;12.30;6.00;;;;;;;;;;5078182;28;20020;-86
2021/11/29 00:06:26;;;;;;;14.30;6.60;;;;;;;;;;5076900;28;20073;-86
2021/11/29 00:08:51;;;;;;;11.27;6.00;;;;;;;;;;5084648;28;20030;-85
2021/11/29 00:11:16;;;;;;;11.60;6.07;;;;;;;;;;5078065;28;20026;-85
2021/11/29 00:13:42;;;;;;;9.93;4.80;;;;;;;;;;5078066;28;20024;-85
2021/11/29 00:16:07;;;;;;;8.53;4.60;;;;;;;;;;5078102;28;20054;-85
2021/11/29 00:18:33;;;;;;;11.17;4.57;;;;;;;;;;5066249;28;20062;-86
2021/11/29 00:20:58;;;;;;;7.10;3.97;;;;;;;;;;5077927;28;20023;-85
2021/11/29 00:23:23;;;;;;;7.93;3.53;;;;;;;;;;5077865;28;20478;-86
2021/11/29 00:25:49;;;;;;;8.73;3.53;;;;;;;;;;5077558;28;20094;-86
2021/11/29 00:28:14;;;;;;;7.40;3.53;;;;;;;;;;5077724;28;20093;-85
2021/11/29 00:30:40;;;;;;;7.50;3.67;;;;;;;;;;5063390;28;20021;-85
2021/11/29 00:33:06;;;;;;;7.27;3.80;;;;;;;;;;5077774;28;20008;-85
2021/11/29 00:35:31;;;;;;;6.63;3.20;;;;;;;;;;5077391;28;20383;-85
2021/11/29 00:37:57;;;;;;;7.30;3.23;;;;;;;;;;5077759;28;20020;-86
2021/11/29 00:40:23;;;;;;;5.63;3.27;;;;;;;;;;5077261;28;20498;-85
2021/11/29 00:42:48;;;;;;;8.27;3.37;;;;;;;;;;5072961;28;20021;-86
2021/11/29 00:45:13;;;;;;;6.17;3.20;;;;;;;;;;5067663;28;20023;-86
2021/11/29 00:47:39;;;;;;;5.43;2.87;;;;;;;;;;5074775;28;20062;-86
2021/11/29 00:50:05;;;;;;;5.57;2.70;;;;;;;;;;5065717;28;20099;-86
2021/11/29 00:52:30;;;;;;;5.37;3.13;;;;;;;;;;5077315;28;20047;-85
2021/11/29 00:54:56;;;;;;;4.90;2.50;;;;;;;;;;5077017;28;20421;-86
2021/11/29 00:57:21;;;;;;;4.23;2.40;;;;;;;;;;5077312;28;20027;-85
2021/11/29 00:59:46;;;;;;;6.03;2.87;;;;;;;;;;5077063;28;20050;-85
2021/11/29 01:02:16;;;;;;;6.30;2.50;;;;;;;;;;5077266;28;20544;-85
2021/11/29 01:04:42;;;;;;;5.37;2.53;;;;;;;;;;5076993;28;20020;-85
2021/11/29 01:07:07;;;;;;;6.37;3.00;;;;;;;;;;5067905;28;20051;-86
2021/11/29 01:09:32;;;;;;;5.27;2.27;;;;;;;;;;5070919;28;20024;-85
2021/11/29 01:11:58;;;;;;;4.73;2.23;;;;;;;;;;5077079;28;20032;-86
2021/11/29 01:14:23;;;;;;;7.43;3.20;;;;;;;;;;5077046;28;20024;-85
2021/11/29 01:16:48;;;;;;;4.80;2.57;;;;;;;;;;5076620;28;20019;-85
2021/11/29 01:19:13;;;;;;;8.30;2.53;;;;;;;;;;5076908;28;20073;-85
2021/11/29 01:21:39;;;;;;;4.93;2.67;;;;;;;;;;5076703;28;20032;-85
2021/11/29 01:24:04;;;;;;;7.73;3.00;;;;;;;;;;5064537;28;20111;-85
2021/11/29 01:26:29;;;;;;;7.93;3.97;;;;;;;;;;5094697;28;20091;-85
2021/11/29 01:28:55;;;;;;;6.37;2.90;;;;;;;;;;5094394;28;20108;-85
2021/11/29 01:31:20;;;;;;;10.37;3.87;;;;;;;;;;5094497;28;20046;-85
2021/11/29 01:33:45;;;;;;;6.50;3.57;;;;;;;;;;5076612;28;20020;-85
2021/11/29 01:36:10;;;;;;;13.43;4.37;;;;;;;;;;5076312;28;20012;-86
2021/11/29 01:38:35;;;;;;;8.30;4.43;;;;;;;;;;5076463;28;20472;-85
2021/11/29 01:41:01;;;;;;;6.83;3.50;;;;;;;;;;5092499;28;20467;-85
2021/11/29 01:43:26;;;;;;;10.83;4.30;;;;;;;;;;5065997;28;20036;-85
2021/11/29 01:45:52;;;;;;;9.00;4.43;;;;;;;;;;5076205;28;20621;-85
2021/11/29 01:48:18;;;;;;;6.70;4.20;;;;;;;;;;5068361;28;20358;-85
2021/11/29 01:50:45;;;;;;;8.67;4.47;;;;;;;;;;5069883;28;20024;-85
2021/11/29 01:53:10;;;;;;;10.77;4.30;;;;;;;;;;5075057;28;20459;-85
2021/11/29 01:55:36;;;;;;;10.17;4.70;;;;;;;;;;5075970;28;20047;-85
2021/11/29 01:58:02;;;;;;;8.80;4.13;;;;;;;;;;5072042;28;20048;-86
2021/11/29 02:00:29;;;;;;;5.50;3.60;;;;;;;;;;5065824;28;20456;-85
2021/11/29 02:02:55;;;;;;;8.97;4.10;;;;;;;;;;5065745;28;20028;-85
2021/11/29 02:05:21;;;;;;;9.30;4.40;;;;;;;;;;5068110;28;20024;-85
2021/11/29 02:07:46;;;;;;;10.37;4.67;;;;;;;;;;5071945;28;20040;-85
2021/11/29 02:10:11;;;;;;;9.50;4.53;;;;;;;;;;5075408;28;20023;-85
2021/11/29 02:12:37;;;;;;;10.73;5.37;;;;;;;;;;5075837;28;20012;-86
2021/11/29 02:15:02;;;;;;;10.27;4.97;;;;;;;;;;5075333;28;20522;-85
2021/11/29 02:17:29;;;;;;;10.53;5.60;;;;;;;;;;5093805;28;20024;-85
2021/11/29 02:19:55;;;;;;;10.57;5.27;;;;;;;;;;5061480;28;20020;-85
2021/11/29 02:22:20;;;;;;;14.60;4.67;;;;;;;;;;5075734;28;20027;-85
2021/11/29 02:24:45;;;;;;;12.10;4.80;;;;;;;;;;5072609;28;20028;-85
2021/11/29 02:27:11;;;;;;;9.17;4.87;;;;;;;;;;5071095;28;20020;-85
2021/11/29 02:29:37;;;;;;;10.03;4.87;;;;;;;;;;5075379;28;20135;-85
2021/11/29 02:32:02;;;;;;;13.17;5.33;;;;;;;;;;5075486;28;20024;-85
2021/11/29 02:34:29;;;;;;;12.20;5.40;;;;;;;;;;5075201;28;20067;-85
2021/11/29 02:36:55;;;;;;;13.77;5.53;;;;;;;;;;5075415;28;20021;-85
2021/11/29 02:39:21;;;;;;;16.50;6.10;;;;;;;;;;5075189;28;20116;-86
2021/11/29 02:41:47;;;;;;;13.47;5.70;;;;;;;;;;5093501;28;20047;-85
2021/11/29 02:44:13;;;;;;;12.83;5.60;;;;;;;;;;5093306;28;20501;-85
2021/11/29 02:46:38;;;;;;;12.90;5.03;;;;;;;;;;5093309;28;20023;-85
2021/11/29 02:49:05;;;;;;;12.43;5.13;;;;;;;;;;5075123;28;20027;-85
2021/11/29 02:51:34;;;;;;;9.63;4.67;;;;;;;;;;5063968;28;20027;-85
2021/11/29 02:54:08;;;;;;;12.40;5.23;;;;;;;;;;5093066;28;20016;-85
2021/11/29 02:56:37;;;;;;;10.17;5.60;;;;;;;;;;5075160;28;20024;-85
2021/11/29 02:59:02;;;;;;;11.63;5.77;;;;;;;;;;5075258;28;20380;-85
2021/11/29 03:01:28;;;;;;;13.53;6.27;;;;;;;;;;5074848;28;20039;-85
2021/11/29 03:03:53;;;;;;;12.57;6.30;;;;;;;;;;5074828;28;20473;-85
2021/11/29 03:06:19;;;;;;;12.10;6.20;;;;;;;;;;5070941;28;20028;-85
2021/11/29 03:08:45;;;;;;;10.53;5.60;;;;;;;;;;5093170;28;20020;-85
2021/11/29 03:11:10;;;;;;;12.40;5.03;;;;;;;;;;5093226;28;20073;-86
2021/11/29 03:13:36;;;;;;;10.00;4.37;;;;;;;;;;5068192;28;20028;-85
2021/11/29 03:16:01;;;;;;;10.60;5.00;;;;;;;;;;5066665;28;20077;-85
2021/11/29 03:18:30;;;;;;;10.93;4.87;;;;;;;;;;5059695;28;20035;-85
2021/11/29 03:20:55;;;;;;;12.10;5.97;;;;;;;;;;5075023;28;20020;-85
2021/11/29 03:23:20;;;;;;;9.63;4.63;;;;;;;;;;5074680;28;20024;-85
2021/11/29 03:25:46;;;;;;;10.97;4.87;;;;;;;;;;5066416;28;20027;-85
2021/11/29 03:28:14;;;;;;;12.07;5.63;;;;;;;;;;5054341;28;20033;-85
2021/11/29 03:30:40;;;;;;;11.50;5.43;;;;;;;;;;5054503;28;20020;-85
2021/11/29 03:33:05;;;;;;;14.90;6.10;;;;;;;;;;5072755;28;20013;-85
2021/11/29 03:35:30;;;;;;;12.73;6.17;;;;;;;;;;5072638;28;20468;-85
2021/11/29 03:37:56;;;;;;;13.97;6.07;;;;;;;;;;5054789;28;20016;-85
2021/11/29 03:40:21;;;;;;;17.50;6.70;;;;;;;;;;5054734;28;20379;-85
2021/11/29 03:42:46;;;;;;;9.30;4.93;;;;;;;;;;5053824;28;20037;-85
2021/11/29 03:45:11;;;;;;;13.03;5.77;;;;;;;;;;5054650;28;20024;-85
2021/11/29 03:47:37;;;;;;;13.37;5.50;;;;;;;;;;5054564;28;20035;-85
2021/11/29 03:50:02;;;;;;;11.80;6.23;;;;;;;;;;5054638;28;20017;-85
2021/11/29 03:52:27;;;;;;;11.90;5.53;;;;;;;;;;5054621;28;20070;-85
2021/11/29 03:54:53;;;;;;;9.40;5.40;;;;;;;;;;5054166;28;20043;-85
2021/11/29 03:57:18;;;;;;;12.53;6.50;;;;;;;;;;5054038;28;20031;-85
2021/11/29 03:59:44;;;;;;;9.83;5.67;;;;;;;;;;5054180;28;20387;-85
2021/11/29 04:02:09;;;;;;;11.67;6.33;;;;;;;;;;5054517;28;20025;-85
2021/11/29 04:04:34;;;;;;;11.40;5.97;;;;;;;;;;5054464;28;20028;-85
2021/11/29 04:07:00;;;;;;;15.03;6.30;;;;;;;;;;5054438;28;20020;-85
2021/11/29 04:09:25;;;;;;;11.47;6.23;;;;;;;;;;5054477;28;20384;-85
2021/11/29 04:11:50;;;;;;;12.93;5.67;;;;;;;;;;5054171;28;20021;-85
2021/11/29 04:14:15;;;;;;;13.30;5.77;;;;;;;;;;5054357;28;20020;-86
2021/11/29 04:16:40;;;;;;;8.97;5.53;;;;;;;;;;5056866;28;20027;-84
2021/11/29 04:19:06;;;;;;;11.20;5.63;;;;;;;;;;5058012;28;20017;-85
2021/11/29 04:21:31;;;;;;;15.40;6.73;;;;;;;;;;5057817;28;20052;-85
2021/11/29 04:23:57;;;;;;;12.93;7.17;;;;;;;;;;5058050;28;20056;-85
2021/11/29 04:26:23;;;;;;;13.23;7.23;;;;;;;;;;5075794;28;20082;-85
2021/11/29 04:28:50;;;;;;;15.63;6.20;;;;;;;;;;5057781;28;20024;-85
2021/11/29 04:31:16;;;;;;;10.17;5.90;;;;;;;;;;5058049;28;20043;-85
2021/11/29 04:33:41;;;;;;;13.17;6.63;;;;;;;;;;5057403;28;20020;-84
2021/11/29 04:36:06;;;;;;;14.40;6.77;;;;;;;;;;5057296;28;20065;-85
2021/11/29 04:38:32;;;;;;;12.33;6.70;;;;;;;;;;5057557;28;20032;-85
2021/11/29 04:40:57;;;;;;;11.90;6.07;;;;;;;;;;5057398;28;20020;-85
2021/11/29 04:43:23;;;;;;;11.07;6.10;;;;;;;;;;5055645;28;20566;-85
2021/11/29 04:45:48;;;;;;;12.10;6.83;;;;;;;;;;5073630;28;20380;-85
2021/11/29 04:48:13;;;;;;;9.37;5.37;;;;;;;;;;5055713;28;20380;-86
2021/11/29 04:50:39;;;;;;;12.23;5.70;;;;;;;;;;5056238;28;20040;-85
2021/11/29 04:53:04;;;;;;;11.50;6.13;;;;;;;;;;5055833;28;20025;-85
2021/11/29 04:55:29;;;;;;;10.07;5.63;;;;;;;;;;5055843;28;20016;-86
2021/11/29 04:57:54;;;;;;;9.37;5.10;;;;;;;;;;5056025;28;20024;-86
2021/11/29 05:00:21;;;;;;;11.83;5.70;;;;;;;;;;5055561;28;20020;-85
2021/11/29 05:02:47;;;;;;;13.57;5.63;;;;;;;;;;5055599;28;20046;-85
2021/11/29 05:05:12;;;;;;;8.97;4.63;;;;;;;;;;5055164;28;20020;-85
2021/11/29 05:07:37;;;;;;;8.23;4.63;;;;;;;;;;5055485;28;20119;-86
2021/11/29 05:10:03;;;;;;;9.03;4.73;;;;;;;;;;5055246;28;20016;-86
2021/11/29 05:12:29;;;;;;;6.53;4.20;;;;;;;;;;5055342;28;20541;-86
2021/11/29 05:14:54;;;;;;;8.90;4.10;;;;;;;;;;5056812;28;20016;-85
2021/11/29 05:17:19;;;;;;;9.93;4.37;;;;;;;;;;5057057;28;20487;-86
2021/11/29 05:19:44;;;;;;;11.53;5.40;;;;;;;;;;5074787;28;20028;-85
2021/11/29 05:22:10;;;;;;;11.53;5.40;;;;;;;;;;5056931;28;20028;-85
2021/11/29 05:24:35;;;;;;;13.37;5.07;;;;;;;;;;5056564;28;20020;-85
2021/11/29 05:27:01;;;;;;;12.83;5.63;;;;;;;;;;5074247;28;20475;-86
2021/11/29 05:29:26;;;;;;;14.43;6.37;;;;;;;;;;5056446;28;20078;-86
2021/11/29 05:31:52;;;;;;;9.83;5.23;;;;;;;;;;5074212;28;20392;-85
2021/11/29 05:34:18;;;;;;;13.50;5.60;;;;;;;;;;5056537;28;20016;-85
2021/11/29 05:36:43;;;;;;;12.07;4.43;;;;;;;;;;5056373;28;20062;-86
2021/11/29 05:39:09;;;;;;;10.77;4.80;;;;;;;;;;5056230;28;20472;-86
2021/11/29 05:41:34;;;;;;;11.70;5.17;;;;;;;;;;5056506;28;20025;-86
2021/11/29 05:43:59;;;;;;;10.60;4.50;;;;;;;;;;5074254;28;20036;-85
2021/11/29 05:46:24;;;;;;;8.77;4.20;;;;;;;;;;5056483;28;20051;-86
2021/11/29 05:48:50;;;;;;;10.07;4.23;;;;;;;;;;5056022;28;20503;-86
2021/11/29 05:51:16;;;;;;;10.33;4.80;;;;;;;;;;5056379;28;20009;-86
2021/11/29 05:53:41;;;;;;;7.80;4.53;;;;;;;;;;5056212;28;20063;-86
2021/11/29 05:56:08;;;;;;;11.43;4.50;;;;;;;;;;5056117;28;20023;-85
2021/11/29 05:58:33;;;;;;;10.60;4.53;;;;;;;;;;5056150;28;20056;-86
2021/11/29 06:00:58;;;;;;;7.63;4.30;;;;;;;;;;5056143;28;20058;-86
2021/11/29 06:03:24;;;;;;;7.97;4.23;;;;;;;;;;5055883;28;20115;-86
2021/11/29 06:05:50;;;;;;;9.10;4.53;;;;;;;;;;5073964;28;20426;-86
2021/11/29 06:08:15;;;;;;;11.13;5.00;;;;;;;;;;5055789;28;20058;-85
2021/11/29 06:10:40;;;;;;;10.10;4.83;;;;;;;;;;5055922;28;20067;-86
2021/11/29 06:13:05;;;;;;;11.90;5.10;;;;;;;;;;5055935;28;20028;-86
2021/11/29 06:15:31;;;;;;;10.80;4.67;;;;;;;;;;5055576;28;20018;-86
2021/11/29 06:17:56;;;;;;;13.07;5.57;;;;;;;;;;5055727;28;20107;-85
2021/11/29 06:20:22;;;;;;;12.37;4.70;;;;;;;;;;5055798;28;20468;-86
2021/11/29 06:22:48;;;;;;;9.33;4.70;;;;;;;;;;5055710;28;20024;-86
2021/11/29 06:25:13;;;;;;;10.43;5.10;;;;;;;;;;5055532;28;20069;-86
2021/11/29 06:27:39;;;;;;;8.03;4.20;;;;;;;;;;5073469;28;20025;-86
2021/11/29 06:30:04;;;;;;;6.70;4.07;;;;;;;;;;5054825;28;20028;-86
2021/11/29 06:32:29;;;;;;;9.37;4.53;;;;;;;;;;5055446;28;20012;-86
2021/11/29 06:34:55;;;;;;;12.23;4.77;;;;;;;;;;5088836;28;20472;-86
2021/11/29 06:37:20;;;;;;;11.90;4.97;;;;;;;;;;5055344;28;20044;-86
2021/11/29 06:39:46;;;;;;;9.83;4.63;;;;;;;;;;5055093;28;20024;-86
2021/11/29 06:42:11;;;;;;;16.03;5.13;;;;;;;;;;5055498;28;20028;-86
2021/11/29 06:44:37;;;;;;;9.50;4.43;;;;;;;;;;5055144;28;20016;-85
2021/11/29 06:47:02;;;;;;;12.47;5.53;;;;;;;;;;5055284;28;20533;-85
2021/11/29 06:49:27;;;;;;;15.63;5.83;;;;;;;;;;5072768;28;20020;-85
2021/11/29 06:51:53;;;;;;;12.90;5.20;;;;;;;;;;5055363;28;20047;-85
2021/11/29 06:54:20;;;;;;;21.20;6.60;;;;;;;;;;5055062;28;20028;-85
2021/11/29 06:56:45;;;;;;;15.97;6.73;;;;;;;;;;5055205;28;20020;-86
2021/11/29 06:59:10;;;;;;;27.40;7.27;;;;;;;;;;5054973;28;20468;-85
2021/11/29 07:01:35;;;;;;;28.80;8.00;;;;;;;;;;5072935;28;20448;-85
2021/11/29 07:04:01;;;;;;;25.10;8.40;;;;;;;;;;5054885;28;20048;-85
2021/11/29 07:06:26;;;;;;;35.03;9.47;;;;;;;;;;5053801;28;20119;-85
2021/11/29 07:08:52;;;;;;;28.33;7.70;;;;;;;;;;5054471;28;20473;-85
2021/11/29 07:11:17;;;;;;;33.60;8.27;;;;;;;;;;5071771;28;20009;-85
2021/11/29 07:13:42;;;;;;;36.13;9.97;;;;;;;;;;5054529;28;20036;-85
2021/11/29 07:16:07;;;;;;;36.87;9.97;;;;;;;;;;5054314;28;20016;-85
2021/11/29 07:18:33;;;;;;;41.17;11.67;;;;;;;;;;5053488;28;20024;-85
2021/11/29 07:20:58;;;;;;;42.33;11.93;;;;;;;;;;5054161;28;20388;-85
2021/11/29 07:23:23;;;;;;;47.13;12.23;;;;;;;;;;5054778;28;20017;-84
2021/11/29 07:25:48;;;;;;;35.20;9.63;;;;;;;;;;5072306;28;20103;-84
2021/11/29 07:28:14;;;;;;;34.13;10.73;;;;;;;;;;5054263;28;20032;-85
2021/11/29 07:30:39;;;;;;;31.37;8.00;;;;;;;;;;5054469;28;20021;-85
2021/11/29 07:33:05;;;;;;;36.97;8.67;;;;;;;;;;5072323;28;20025;-85
2021/11/29 07:35:30;;;;;;;34.47;9.27;;;;;;;;;;5054230;28;20082;-84
2021/11/29 07:37:55;;;;;;;32.17;9.10;;;;;;;;;;5054414;28;20016;-84
2021/11/29 07:40:21;;;;;;;35.43;10.67;;;;;;;;;;5054761;28;20070;-84
2021/11/29 07:42:47;;;;;;;34.70;8.43;;;;;;;;;;5072430;28;20502;-84
2021/11/29 07:45:13;;;;;;;35.97;9.37;;;;;;;;;;5072260;28;20020;-84
2021/11/29 07:47:42;;;;;;;39.47;10.80;;;;;;;;;;5072247;28;20412;-84
2021/11/29 07:50:09;;;;;;;34.43;9.40;;;;;;;;;;5072444;28;20597;-84
2021/11/29 07:52:34;;;;;;;27.83;9.57;;;;;;;;;;5058215;28;20057;-84
2021/11/29 07:55:01;;;;;;;38.70;8.97;;;;;;;;;;5058339;28;20487;-85
2021/11/29 07:57:27;;;;;;;28.80;8.87;;;;;;;;;;5058353;28;20024;-84
2021/11/29 07:59:52;;;;;;;29.97;10.00;;;;;;;;;;5058161;28;20119;-84
2021/11/29 08:02:17;;;;;;;26.00;8.13;;;;;;;;;;5076889;28;20480;-84
2021/11/29 08:04:43;;;;;;;25.00;8.57;;;;;;;;;;5057911;28;20543;-84
2021/11/29 08:07:08;;;;;;;24.10;8.13;;;;;;;;;;5074273;28;20085;-85
2021/11/29 08:09:33;;;;;;;18.20;5.50;;;;;;;;;;5057258;28;20020;-84
2021/11/29 08:11:58;;;;;;;26.80;9.03;;;;;;;;;;5075519;28;20031;-84
2021/11/29 08:14:24;;;;;;;25.37;8.37;;;;;;;;;;5058160;28;20020;-84
2021/11/29 08:16:49;;;;;;;22.47;7.17;;;;;;;;;;5075071;28;20013;-84
2021/11/29 08:19:15;;;;;;;18.53;7.00;;;;;;;;;;5057902;28;20023;-84
2021/11/29 08:21:40;;;;;;;23.00;7.70;;;;;;;;;;5057376;28;20029;-84
2021/11/29 08:24:05;;;;;;;18.00;6.77;;;;;;;;;;5057763;28;20013;-84
2021/11/29 08:26:30;;;;;;;15.87;6.57;;;;;;;;;;5057611;28;20017;-83
2021/11/29 08:28:56;;;;;;;14.73;5.87;;;;;;;;;;5057893;28;20476;-84
2021/11/29 08:31:21;;;;;;;15.33;6.27;;;;;;;;;;5056442;28;20055;-84
2021/11/29 08:33:46;;;;;;;15.70;6.03;;;;;;;;;;5056883;28;20372;-84
2021/11/29 08:36:12;;;;;;;18.90;7.07;;;;;;;;;;5057149;28;20230;-85
2021/11/29 08:38:37;;;;;;;15.33;5.83;;;;;;;;;;5075506;28;20028;-85
2021/11/29 08:41:02;;;;;;;14.57;5.53;;;;;;;;;;5056952;28;20432;-84
2021/11/29 08:43:28;;;;;;;14.13;6.70;;;;;;;;;;5056938;28;20031;-84
2021/11/29 08:45:53;;;;;;;18.67;6.67;;;;;;;;;;5056854;28;20017;-85
2021/11/29 08:48:20;;;;;;;17.20;5.90;;;;;;;;;;5056898;28;20020;-84
2021/11/29 08:50:46;;;;;;;19.87;5.50;;;;;;;;;;5057258;28;20017;-83
2021/11/29 08:53:13;;;;;;;14.13;5.17;;;;;;;;;;5049220;28;20012;-84
2021/11/29 08:55:39;;;;;;;10.40;5.00;;;;;;;;;;5057261;28;20059;-84
2021/11/29 08:58:05;;;;;;;13.77;5.27;;;;;;;;;;5056662;28;20426;-83
2021/11/29 09:00:30;;;;;;;11.40;4.70;;;;;;;;;;5057094;28;20016;-83
2021/11/29 09:02:55;;;;;;;12.50;4.53;;;;;;;;;;5056202;28;20026;-83
2021/11/29 09:05:22;;;;;;;8.80;4.33;;;;;;;;;;5072271;28;20100;-83
2021/11/29 09:07:47;;;;;;;12.43;4.47;;;;;;;;;;5054170;28;20028;-84
2021/11/29 09:10:12;;;;;;;9.17;4.50;;;;;;;;;;5056083;28;20362;-84
2021/11/29 09:12:38;;;;;;;13.00;3.97;;;;;;;;;;5057104;28;20062;-85
2021/11/29 09:15:05;;;;;;;9.90;3.87;;;;;;;;;;5056474;28;20028;-84
2021/11/29 09:17:30;;;;;;;9.23;4.00;;;;;;;;;;5056235;28;20016;-84
2021/11/29 09:19:57;;;;;;;12.27;3.87;;;;;;;;;;5055637;28;20059;-84
2021/11/29 09:22:22;;;;;;;11.00;4.47;;;;;;;;;;5056311;28;20028;-84
2021/11/29 09:24:48;;;;;;;10.93;3.90;;;;;;;;;;5056227;28;20028;-83
2021/11/29 09:27:13;;;;;;;14.93;3.10;;;;;;;;;;5056311;28;20016;-84
2021/11/29 09:29:38;;;;;;;8.07;3.10;;;;;;;;;;5056167;28;20756;-84
2021/11/29 09:32:04;;;;;;;8.63;3.07;;;;;;;;;;5054979;28;20028;-84
2021/11/29 09:34:30;;;;;;;6.13;2.70;;;;;;;;;;5056617;28;20357;-86
2021/11/29 09:36:56;;;;;;;12.23;3.30;;;;;;;;;;5057189;28;20044;-86
2021/11/29 09:39:21;;;;;;;10.07;2.67;;;;;;;;;;5056279;28;20027;-86
2021/11/29 09:41:46;;;;;;;6.93;3.10;;;;;;;;;;5056481;28;20031;-86
2021/11/29 09:44:11;;;;;;;8.57;3.37;;;;;;;;;;5056517;28;20016;-86
2021/11/29 09:46:36;;;;;;;6.77;2.60;;;;;;;;;;5060912;28;20052;-86
2021/11/29 09:49:02;;;;;;;7.90;2.70;;;;;;;;;;5055743;28;20086;-86
2021/11/29 09:51:28;;;;;;;6.03;2.33;;;;;;;;;;5053922;28;20032;-86
2021/11/29 09:53:53;;;;;;;7.07;2.37;;;;;;;;;;5074214;28;20017;-87
2021/11/29 09:56:18;;;;;;;8.60;3.00;;;;;;;;;;5056236;28;20035;-86
2021/11/29 09:58:45;;;;;;;7.43;2.20;;;;;;;;;;5056370;28;20467;-86
2021/11/29 10:01:10;;;;;;;6.13;2.50;;;;;;;;;;5042016;28;20524;-86
2021/11/29 10:03:36;;;;;;;9.23;2.50;;;;;;;;;;5056246;28;20059;-86
2021/11/29 10:06:02;;;;;;;16.77;3.00;;;;;;;;;;5056078;28;20021;-87
2021/11/29 10:08:29;;;;;;;9.17;2.43;;;;;;;;;;5055742;28;20029;-87
2021/11/29 10:10:56;;;;;;;6.93;2.60;;;;;;;;;;5055844;28;20024;-86
2021/11/29 10:13:23;;;;;;;11.53;2.23;;;;;;;;;;5055125;28;20024;-86
2021/11/29 10:15:49;;;;;;;6.07;2.40;;;;;;;;;;5055872;28;20020;-87
2021/11/29 10:18:24;;;;;;;9.10;2.40;;;;;;;;;;5055925;28;20035;-87
2021/11/29 10:20:52;;;;;;;9.10;2.47;;;;;;;;;;5073928;28;20024;-87
2021/11/29 10:23:38;;;;;;;10.17;3.27;;;;;;;;;;5055653;28;20025;-86
2021/11/29 10:26:08;;;;;;;11.93;3.57;;;;;;;;;;5055155;28;20040;-87
2021/11/29 10:28:44;;;;;;;16.43;3.53;;;;;;;;;;5055557;28;20548;-87
2021/11/29 10:31:12;;;;;;;10.90;3.40;;;;;;;;;;5055709;28;20017;-86
2021/11/29 10:34:03;;;;;;;11.83;2.40;;;;;;;;;;5053680;28;20070;-86
2021/11/29 10:36:33;;;;;;;7.00;2.50;;;;;;;;;;5072959;28;20033;-87
2021/11/29 10:39:01;;;;;;;9.47;2.37;;;;;;;;;;5054151;28;20028;-87
2021/11/29 10:41:32;;;;;;;8.33;1.60;;;;;;;;;;5054376;28;20052;-87
2021/11/29 10:43:57;;;;;;;8.23;2.73;;;;;;;;;;5054170;28;20518;-87
2021/11/29 10:46:24;;;;;;;9.07;2.20;;;;;;;;;;5053872;28;20032;-87
2021/11/29 10:48:51;;;;;;;14.53;3.30;;;;;;;;;;5072290;28;20021;-87
2021/11/29 10:51:17;;;;;;;13.37;3.10;;;;;;;;;;5053865;28;20023;-87
2021/11/29 10:53:45;;;;;;;11.23;3.10;;;;;;;;;;5053692;28;20020;-87
2021/11/29 10:56:11;;;;;;;9.30;2.43;;;;;;;;;;5053860;28;20521;-87
2021/11/29 10:58:44;;;;;;;8.07;2.23;;;;;;;;;;5059335;28;20115;-87
2021/11/29 11:01:09;;;;;;;13.23;3.20;;;;;;;;;;5054827;28;20020;-86
2021/11/29 11:03:52;;;;;;;8.07;2.47;;;;;;;;;;5055348;28;20061;-86
2021/11/29 11:06:24;;;;;;;10.60;2.60;;;;;;;;;;5054540;28;20020;-87
2021/11/29 11:08:49;;;;;;;11.85;2.80;;;;;;;;;;5060427;28;20033;-87
2021/11/29 11:11:31;;;;;;;11.63;2.60;;;;;;;;;;5059895;28;20023;-87
2021/11/29 11:13:57;;;;;;;11.13;2.70;;;;;;;;;;5059411;28;20062;-87
2021/11/29 11:16:42;;;;;;;10.67;2.67;;;;;;;;;;5054801;28;20036;-87
2021/11/29 11:19:31;;;;;;;13.20;3.13;;;;;;;;;;5055100;28;20012;-87
2021/11/29 11:21:58;;;;;;;13.27;2.83;;;;;;;;;;5061848;28;20038;-87
2021/11/29 11:24:27;;;;;;;8.70;2.23;;;;;;;;;;5073170;28;20098;-86
2021/11/29 11:26:57;;;;;;;14.17;3.20;;;;;;;;;;5058826;28;20017;-87
2021/11/29 11:29:33;;;;;;;12.03;2.50;;;;;;;;;;5058666;28;20020;-87
2021/11/29 11:32:07;;;;;;;14.53;3.47;;;;;;;;;;5058684;28;20032;-86
2021/11/29 11:34:34;;;;;;;9.80;2.50;;;;;;;;;;5058529;28;20595;-86
2021/11/29 11:36:59;;;;;;;8.63;2.57;;;;;;;;;;5058795;28;20073;-87
2021/11/29 11:39:24;;;;;;;16.67;2.83;;;;;;;;;;5058646;28;20123;-87
2021/11/29 11:41:49;;;;;;;8.03;2.20;;;;;;;;;;5058822;28;20036;-87
2021/11/29 11:44:15;;;;;;;12.70;2.70;;;;;;;;;;5075973;28;20028;-87
2021/11/29 11:46:40;;;;;;;9.13;2.30;;;;;;;;;;5058552;28;20468;-87
2021/11/29 11:49:06;;;;;;;7.23;2.00;;;;;;;;;;5057883;28;20025;-86
2021/11/29 11:51:31;;;;;;;17.20;2.50;;;;;;;;;;5058687;28;20063;-87
2021/11/29 11:53:56;;;;;;;16.03;2.60;;;;;;;;;;5058477;28;20024;-87
2021/11/29 11:56:21;;;;;;;14.90;2.60;;;;;;;;;;5076212;28;20017;-86
2021/11/29 11:58:55;;;;;;;13.53;2.60;;;;;;;;;;5076594;28;20032;-87
2021/11/29 12:01:23;;;;;;;13.07;2.43;;;;;;;;;;5058184;28;20111;-86
2021/11/29 12:03:49;;;;;;;10.60;2.20;;;;;;;;;;5057524;28;20017;-86
2021/11/29 12:06:18;;;;;;;15.83;2.67;;;;;;;;;;5072412;28;20456;-86
2021/11/29 12:08:56;;;;;;;14.43;2.90;;;;;;;;;;5057631;28;20468;-87
2021/11/29 12:13:51;;;;;;;7.83;2.10;;;;;;;;;;5075917;28;20112;-87
2021/11/29 12:16:38;;;;;;;12.37;2.50;;;;;;;;;;5058145;28;20017;-87
2021/11/29 12:19:04;;;;;;;7.47;2.10;;;;;;;;;;5057924;28;20028;-86
2021/11/29 12:21:34;;;;;;;15.90;2.67;;;;;;;;;;5059003;28;20024;-86
2021/11/29 12:23:59;;;;;;;13.00;2.43;;;;;;;;;;5063558;28;20121;-87
2021/11/29 12:26:49;;;;;;;3.97;1.60;;;;;;;;;;5058037;28;20056;-87
2021/11/29 12:29:20;;;;;;;16.70;2.10;;;;;;;;;;5057991;28;20073;-87
2021/11/29 12:32:06;;;;;;;8.23;2.07;;;;;;;;;;5066086;28;20376;-87
2021/11/29 12:34:43;;;;;;;15.03;2.30;;;;;;;;;;5057293;28;20025;-87
2021/11/29 12:37:10;;;;;;;8.50;2.07;;;;;;;;;;5056890;28;20020;-87
2021/11/29 12:39:42;;;;;;;10.10;2.13;;;;;;;;;;5057182;28;20036;-87
2021/11/29 12:42:22;;;;;;;8.43;1.67;;;;;;;;;;5057701;28;20052;-87
2021/11/29 12:44:49;;;;;;;13.50;2.47;;;;;;;;;;5044599;28;20027;-87
2021/11/29 12:47:15;;;;;;;11.00;2.10;;;;;;;;;;5057597;28;20024;-87
2021/11/29 12:49:40;;;;;;;11.37;2.37;;;;;;;;;;5075154;28;20020;-88
2021/11/29 12:52:05;;;;;;;7.40;1.83;;;;;;;;;;5075689;28;20009;-88
2021/11/29 12:54:48;;;;;;;9.07;2.53;;;;;;;;;;5057514;28;20024;-87
2021/11/29 12:57:17;;;;;;;9.93;2.40;;;;;;;;;;5057464;28;20376;-88
2021/11/29 12:59:59;;;;;;;13.70;2.73;;;;;;;;;;5057120;28;20023;-87
2021/11/29 13:02:44;;;;;;;16.98;3.08;;;;;;;;;;5057499;28;20028;-88
2021/11/29 13:05:28;;;;;;;6.47;1.53;;;;;;;;;;5056871;28;20768;-88
2021/11/29 13:08:05;;;;;;;9.60;2.03;;;;;;;;;;5056828;28;20369;-86
2021/11/29 13:10:49;;;;;;;9.37;1.90;;;;;;;;;;5086813;28;20435;-89
2021/11/29 13:13:33;;;;;;;10.50;1.83;;;;;;;;;;5075579;28;20020;-89
2021/11/29 13:16:04;;;;;;;10.17;2.20;;;;;;;;;;5067216;28;20021;-89
2021/11/29 13:18:52;;;;;;;21.53;3.40;;;;;;;;;;5057737;28;20103;-88
2021/11/29 13:21:19;;;;;;;17.03;2.63;;;;;;;;;;5058222;28;20054;-88
2021/11/29 13:23:45;;;;;;;12.17;2.60;;;;;;;;;;5057391;28;20046;-89
2021/11/29 13:26:11;;;;;;;13.53;2.40;;;;;;;;;;5057485;28;20134;-88
2021/11/29 13:28:36;;;;;;;10.37;2.20;;;;;;;;;;5057077;28;20024;-87
2021/11/29 13:31:02;;;;;;;12.80;3.40;;;;;;;;;;5056832;28;20494;-87
2021/11/29 13:33:27;;;;;;;9.73;1.77;;;;;;;;;;5057024;28;20039;-87
2021/11/29 13:36:00;;;;;;;11.80;2.03;;;;;;;;;;5056672;28;20028;-87
2021/11/29 13:38:25;;;;;;;19.87;3.57;;;;;;;;;;5074851;28;20032;-87
2021/11/29 13:40:50;;;;;;;20.97;3.70;;;;;;;;;;5056644;28;20348;-87
2021/11/29 13:43:29;;;;;;;10.37;2.50;;;;;;;;;;5056948;28;20029;-87
2021/11/29 13:45:54;;;;;;;11.60;2.40;;;;;;;;;;5075532;28;20051;-87
2021/11/29 13:48:22;;;;;;;15.73;2.60;;;;;;;;;;5055591;28;20024;-87
2021/11/29 13:50:51;;;;;;;16.13;2.50;;;;;;;;;;5056357;28;20032;-87
2021/11/29 13:53:21;;;;;;;9.53;1.70;;;;;;;;;;5056569;28;20399;-87
2021/11/29 13:55:48;;;;;;;11.40;1.67;;;;;;;;;;5056682;28;20483;-87
2021/11/29 13:58:19;;;;;;;9.60;1.70;;;;;;;;;;5056512;28;20035;-87
2021/11/29 14:00:45;;;;;;;7.40;1.50;;;;;;;;;;5056565;28;20051;-87
2021/11/29 14:03:15;;;;;;;8.83;1.60;;;;;;;;;;5056375;28;20070;-87
2021/11/29 14:05:52;;;;;;;11.60;1.77;;;;;;;;;;5056354;28;20028;-87
2021/11/29 14:08:19;;;;;;;8.67;1.50;;;;;;;;;;5057315;28;20103;-87
2021/11/29 14:10:52;;;;;;;8.47;1.37;;;;;;;;;;5056290;28;20009;-87
2021/11/29 14:13:21;;;;;;;10.57;1.50;;;;;;;;;;5056084;28;20016;-87
2021/11/29 14:15:59;;;;;;;14.63;1.70;;;;;;;;;;5056378;28;20013;-87
2021/11/29 14:18:44;;;;;;;8.77;1.73;;;;;;;;;;5058282;28;20024;-87
2021/11/29 14:21:14;;;;;;;12.47;1.67;;;;;;;;;;5055971;28;20025;-88
2021/11/29 14:23:41;;;;;;;9.93;1.30;;;;;;;;;;5055918;28;20791;-87
2021/11/29 14:26:08;;;;;;;10.03;1.70;;;;;;;;;;5056231;28;20078;-87
2021/11/29 14:28:33;;;;;;;10.50;1.73;;;;;;;;;;5073733;28;20052;-87
2021/11/29 14:31:00;;;;;;;10.20;1.90;;;;;;;;;;5056110;28;20067;-88
2021/11/29 14:33:28;;;;;;;6.50;1.67;;;;;;;;;;5055919;28;20047;-87
2021/11/29 14:35:54;;;;;;;9.80;1.30;;;;;;;;;;5055895;28;20145;-87